Strona główna
METAR-TAF:

METAR-TAF

Lotnisko :

Mount Carmel Municipal Airport

Mount Carmel, Illinois, Stany Zjednoczone

Szerokość geograficzna: 38-36-23N, Długość geograficzna: 087-43-36W, wysokość: 131 m

Aktualna obserwacja pogody

Raport powstał 12 minut temu, godzina 05:35 UTC
Wiatr 3 kt od wschodnio-południowy wschód
Temperatura 14°C
Wilgotność 77%
Ciśnienie 1025 hPa
Widzialność: 16.1 km
bezchmurnie

METAR: KAJG 010535Z AUTO 11003KT 10SM CLR 14/10 A3027 RMK AO2 T01440104

czas: 00:47 (05:47 UTC)


TAF: brakujący

Obserwacja i prognoza pogody dla ponad 4000 lotnisk (raport METAR i TAF).

Dostępne stacje oznaczono żółtymi i czerwonymi punktami na mapie.

Najedź kursorem aby zobaczyć nazwę stacji.

Kliknij aby zobaczyć obserwacje i prognozy pogody.

Aby zmienić mapę: kliknij na zielony przycisk z czarnym krzyżykiem, aby powiększyć; na zielony przycisk z myślnikiem, aby pomniejszyć; na zielone strzałki, aby przejść do map sąsiednich.


METAR-TAF: